Alton, Iowa
Current Conditions -  °F | °C
As of 4:35 PM on Wednesday 22 Oct 2014 (Local Time) from KORC Reporting Station
Scattered Clouds Scattered Clouds  
Wind Chill: 23°   Ceiling: Unl
Heat Index: 23°   Visibility: 10mi
Dew Point: 10°   Wind: 15mph
Humidity: 44%   Direction: 170°S
Pressure: 29.95"   Gusts: 23mph
Location:  42.99°N, 96.01°W
Report Text: KORC 222135Z AUTO 17013G20KT 10SM SCT080 23/10 A2995 RMK AO2
Loading
Personal Weather Stations






























Interactive Weather Map
Tropical Storm Tracking
New forecast layout! Learn more

10-Day Weather Forecast

Advertisements
Track Severe Weather on mobile